Terminal Aerodrome Forecast
Issued by NWS Wichita, KS

Home | Current Version | Previous Version | Text Only | Print | Product List | Glossary Off
Versions: 1 2 3 4 5 6 7 8 9 10 11 12 13 14 15 16 17 18

443
FTUS43 KICT 201121
TAFICT
TAF
KICT 201121Z 2012/2112 19010KT P6SM FEW250
     FM201700 20013G20KT P6SM SKC
     FM210100 17012KT P6SM SKC=

USA.gov is the U.S. government's official web portal to all federal, state and local government web resources and services.